Time;durP1;ratioP1;P1;durP2;ratioP2;P2;SDS_P1;SDS_P2;PMS_P1;PMS_P2;Temp;Humidity;BMP_temperature;BMP_pressure;BME280_temperature;BME280_humidity;BME280_pressure;Samples;Min_cycle;Max_cycle;Signal;HPM_P1;HPM_P2
2022/06/29 00:01:58;;;;;;;;;26.00;26.00;31.20;40.30;;;;;;5056872;28;8772;-68
2022/06/29 00:04:24;;;;;;;;;24.67;24.00;31.20;39.50;;;;;;5056970;28;8772;-68
2022/06/29 00:06:50;;;;;;;;;24.67;24.33;31.30;39.70;;;;;;5056807;28;9720;-69
2022/06/29 00:09:15;;;;;;;;;27.00;26.00;31.30;40.20;;;;;;5056760;28;8775;-67
2022/06/29 00:11:41;;;;;;;;;29.33;27.67;31.30;40.50;;;;;;5070722;28;8885;-68
2022/06/29 00:14:07;;;;;;;;;31.33;30.00;31.30;40.70;;;;;;5069604;28;8820;-68
2022/06/29 00:16:33;;;;;;;;;36.33;32.67;31.30;41.00;;;;;;5070878;28;8764;-68
2022/06/29 00:18:59;;;;;;;;;34.33;32.00;31.20;41.10;;;;;;5056679;28;8810;-69
2022/06/29 00:21:24;;;;;;;;;39.67;35.00;30.90;41.50;;;;;;5056397;28;8837;-68
2022/06/29 00:23:50;;;;;;;;;39.00;35.00;30.80;41.60;;;;;;5056277;28;8775;-68
2022/06/29 00:26:16;;;;;;;;;35.33;33.00;30.80;41.70;;;;;;5056340;28;8771;-67
2022/06/29 00:28:41;;;;;;;;;30.00;30.00;30.80;41.80;;;;;;5056170;28;8764;-69
2022/06/29 00:31:08;;;;;;;;;29.67;29.67;30.80;42.00;;;;;;5056184;28;8780;-68
2022/06/29 00:33:33;;;;;;;;;31.33;30.33;30.80;42.10;;;;;;5056431;28;8752;-69
2022/06/29 00:35:59;;;;;;;;;31.00;30.00;30.80;42.20;;;;;;5038163;28;8811;-69
2022/06/29 00:38:25;;;;;;;;;29.00;28.67;30.80;42.10;;;;;;5055979;28;8899;-68
2022/06/29 00:40:51;;;;;;;;;27.00;27.00;30.60;42.00;;;;;;5056237;28;8833;-67
2022/06/29 00:43:16;;;;;;;;;30.00;28.67;30.70;42.10;;;;;;5055885;28;8922;-68
2022/06/29 00:45:42;;;;;;;;;29.33;29.00;30.80;42.10;;;;;;5055864;28;8764;-69
2022/06/29 00:48:08;;;;;;;;;35.00;32.67;30.70;42.00;;;;;;5055830;28;8879;-69
2022/06/29 00:50:38;;;;;;;;;29.33;29.33;30.50;42.10;;;;;;5055816;28;8764;-69
2022/06/29 00:53:05;;;;;;;;;26.00;26.00;30.40;42.20;;;;;;5055742;28;8776;-68
2022/06/29 00:55:33;;;;;;;;;34.00;28.67;30.40;43.20;;;;;;5055690;28;8784;-68
2022/06/29 00:58:05;;;;;;;;;28.33;28.33;30.30;42.00;;;;;;5055576;28;8910;-69
2022/06/29 01:00:34;;;;;;;;;28.33;26.33;30.50;41.80;;;;;;5055655;28;8780;-69
2022/06/29 01:03:00;;;;;;;;;32.00;31.00;30.50;41.90;;;;;;5055565;28;8796;-68
2022/06/29 01:05:27;;;;;;;;;29.33;29.33;30.40;42.00;;;;;;5055779;28;9445;-69
2022/06/29 01:07:53;;;;;;;;;28.67;28.67;30.50;41.90;;;;;;5055516;28;8790;-68
2022/06/29 01:10:20;;;;;;;;;26.67;26.67;30.50;41.70;;;;;;5055418;28;8772;-69
2022/06/29 01:12:51;;;;;;;;;28.67;28.00;30.30;41.60;;;;;;5055461;28;8780;-69
2022/06/29 01:15:17;;;;;;;;;29.67;28.67;30.20;42.10;;;;;;5067520;28;9634;-68
2022/06/29 01:17:44;;;;;;;;;27.33;27.33;30.20;41.90;;;;;;5062140;28;8807;-68
2022/06/29 01:20:11;;;;;;;;;30.67;29.33;29.90;42.20;;;;;;5055241;28;8799;-69
2022/06/29 01:22:38;;;;;;;;;26.33;25.67;29.90;42.30;;;;;;5055287;28;8776;-69
2022/06/29 01:25:04;;;;;;;;;29.00;29.00;30.10;41.90;;;;;;5055216;28;8779;-69
2022/06/29 01:27:30;;;;;;;;;29.00;29.00;30.10;41.90;;;;;;5055099;28;8799;-68
2022/06/29 01:29:56;;;;;;;;;31.33;30.67;30.10;41.60;;;;;;5055326;28;8768;-68
2022/06/29 01:32:22;;;;;;;;;26.00;25.33;30.10;41.60;;;;;;5055006;28;8748;-69
2022/06/29 01:34:49;;;;;;;;;29.33;28.67;30.20;41.50;;;;;;5037410;28;8780;-68
2022/06/29 01:37:15;;;;;;;;;29.00;26.00;30.00;41.60;;;;;;5055165;28;8811;-68
2022/06/29 01:39:41;;;;;;;;;31.67;30.00;29.90;42.10;;;;;;5055190;28;8760;-67
2022/06/29 01:42:09;;;;;;;;;25.00;25.00;29.90;42.40;;;;;;5054982;28;8855;-68
2022/06/29 01:44:36;;;;;;;;;31.00;30.00;30.00;42.20;;;;;;5055040;28;8808;-69
2022/06/29 01:47:03;;;;;;;;;27.33;26.33;29.90;42.30;;;;;;5055016;28;9483;-68
2022/06/29 01:49:29;;;;;;;;;31.00;30.00;30.00;42.50;;;;;;5054356;28;8780;-70
2022/06/29 01:51:56;;;;;;;;;25.00;25.00;29.60;43.40;;;;;;5054789;28;8874;-69
2022/06/29 01:54:22;;;;;;;;;33.67;31.33;29.70;43.80;;;;;;5061530;28;8809;-68
2022/06/29 01:56:49;;;;;;;;;31.00;30.00;29.50;44.10;;;;;;5074957;28;8754;-69
2022/06/29 01:59:15;;;;;;;;;28.67;28.00;29.70;43.90;;;;;;5074755;28;8802;-67
2022/06/29 02:01:40;;;;;;;;;29.00;28.33;29.70;43.70;;;;;;5074846;28;9455;-68
2022/06/29 02:04:07;;;;;;;;;24.67;24.00;29.60;43.70;;;;;;5074548;28;8834;-69
2022/06/29 02:06:33;;;;;;;;;34.33;32.00;29.60;43.80;;;;;;5074456;28;8770;-68
2022/06/29 02:08:59;;;;;;;;;30.67;30.00;29.50;43.80;;;;;;5074434;28;8778;-69
2022/06/29 02:11:25;;;;;;;;;32.00;31.00;29.60;43.70;;;;;;5074428;28;8778;-68
2022/06/29 02:13:52;;;;;;;;;30.67;30.00;29.50;43.80;;;;;;5074121;28;8801;-68
2022/06/29 02:16:18;;;;;;;;;33.67;31.67;29.30;44.20;;;;;;5074589;28;8778;-68
2022/06/29 02:18:44;;;;;;;;;31.00;30.33;29.00;45.00;;;;;;5074546;28;9542;-69
2022/06/29 02:21:10;;;;;;;;;26.33;26.33;29.10;45.20;;;;;;5074369;28;8759;-68
2022/06/29 02:23:36;;;;;;;;;32.67;31.67;28.80;45.50;;;;;;5074429;28;8785;-68
2022/06/29 02:26:02;;;;;;;;;30.00;29.00;28.70;46.00;;;;;;5074269;28;8762;-67
2022/06/29 02:28:28;;;;;;;;;34.67;32.00;28.70;45.90;;;;;;5074526;28;8888;-67
2022/06/29 02:36:36;;;;;;;;;33.67;32.00;29.10;45.80;;;;;;5074324;28;8754;-68
2022/06/29 02:39:02;;;;;;;;;29.00;29.00;29.00;45.90;;;;;;5056731;28;8906;-67
2022/06/29 02:41:29;;;;;;;;;34.00;32.00;28.70;46.40;;;;;;5074124;28;8762;-67
2022/06/29 02:43:55;;;;;;;;;30.67;29.00;28.80;46.30;;;;;;5064722;28;8834;-68
2022/06/29 02:46:20;;;;;;;;;33.33;30.67;28.90;45.90;;;;;;5064717;28;8786;-69
2022/06/29 02:48:46;;;;;;;;;35.00;32.00;28.90;46.10;;;;;;5074286;28;8847;-68
2022/06/29 02:51:12;;;;;;;;;32.33;30.00;28.90;45.90;;;;;;5073924;28;8774;-69
2022/06/29 02:53:38;;;;;;;;;33.00;32.00;28.60;46.20;;;;;;5074310;28;8888;-68
2022/06/29 02:56:04;;;;;;;;;30.00;30.00;28.50;46.60;;;;;;5074226;28;8778;-68
2022/06/29 02:58:30;;;;;;;;;35.00;33.00;28.60;46.80;;;;;;5073869;28;8937;-68
2022/06/29 03:00:56;;;;;;;;;29.00;29.00;28.40;46.80;;;;;;5077323;28;8762;-67
2022/06/29 03:03:21;;;;;;;;;37.00;34.00;28.60;46.60;;;;;;5077724;28;8770;-68
2022/06/29 03:05:47;;;;;;;;;47.00;40.33;28.90;45.90;;;;;;5078014;28;8750;-66
2022/06/29 03:08:13;;;;;;;;;52.33;44.00;29.10;45.50;;;;;;5078115;28;8754;-69
2022/06/29 03:10:39;;;;;;;;;58.00;46.50;28.90;45.50;;;;;;5077796;28;8758;-70
2022/06/29 03:13:05;;;;;;;;;51.67;42.67;29.00;45.40;;;;;;5077609;28;8786;-68
2022/06/29 03:15:30;;;;;;;;;53.33;44.33;29.10;44.90;;;;;;5077272;28;8826;-67
2022/06/29 03:17:56;;;;;;;;;45.33;38.33;29.20;44.70;;;;;;5077490;28;8810;-69
2022/06/29 03:20:22;;;;;;;;;39.00;34.67;29.10;44.40;;;;;;5077812;28;8778;-68
2022/06/29 03:22:48;;;;;;;;;34.33;32.33;29.10;44.20;;;;;;5077534;28;8805;-67
2022/06/29 03:25:15;;;;;;;;;14.33;13.67;28.90;44.70;;;;;;5077487;28;8786;-67
2022/06/29 03:27:42;;;;;;;;;31.33;30.33;28.90;44.70;;;;;;5077675;28;8784;-68
2022/06/29 03:30:08;;;;;;;;;26.67;26.67;28.60;44.80;;;;;;5077299;28;8761;-69
2022/06/29 03:32:34;;;;;;;;;31.67;30.67;28.40;45.10;;;;;;5077272;28;8770;-69
2022/06/29 03:35:01;;;;;;;;;30.33;30.00;28.40;45.30;;;;;;5077231;28;8778;-68
2022/06/29 03:37:27;;;;;;;;;29.67;29.67;28.50;46.10;;;;;;5077095;28;8886;-69
2022/06/29 03:39:52;;;;;;;;;29.33;29.00;28.70;44.70;;;;;;5072866;28;8918;-69
2022/06/29 03:42:18;;;;;;;;;27.67;27.67;28.80;44.50;;;;;;5067363;28;8880;-69
2022/06/29 03:44:44;;;;;;;;;34.67;33.00;28.90;44.60;;;;;;5057588;28;8804;-69
2022/06/29 03:47:10;;;;;;;;;39.67;35.33;28.80;44.70;;;;;;5057281;28;8791;-68
2022/06/29 03:49:36;;;;;;;;;41.33;34.00;28.90;44.60;;;;;;5057242;28;8760;-67
2022/06/29 03:52:03;;;;;;;;;36.33;32.33;29.10;44.30;;;;;;5057205;28;8741;-69
2022/06/29 03:54:29;;;;;;;;;32.00;30.00;29.30;44.30;;;;;;5057077;28;8844;-69
2022/06/29 03:56:55;;;;;;;;;32.33;29.33;29.40;44.20;;;;;;5056846;28;8886;-68
2022/06/29 03:59:21;;;;;;;;;30.00;30.00;29.40;43.90;;;;;;5067186;28;8802;-68
2022/06/29 04:01:47;;;;;;;;;28.00;28.00;29.40;43.80;;;;;;5064053;28;8825;-68
2022/06/29 04:04:13;;;;;;;;;30.00;29.67;29.50;43.70;;;;;;5060123;28;8796;-68
2022/06/29 04:06:40;;;;;;;;;32.00;30.00;29.40;43.90;;;;;;5056849;28;8815;-69
2022/06/29 04:09:05;;;;;;;;;28.67;28.67;29.40;44.20;;;;;;5056844;28;8772;-67
2022/06/29 04:11:52;;;;;;;;;32.67;31.00;29.40;44.40;;;;;;5055854;28;8795;-69
2022/06/29 04:14:23;;;;;;;;;35.00;32.00;29.40;44.70;;;;;;5056660;28;8935;-67
2022/06/29 04:16:50;;;;;;;;;31.67;31.00;29.30;45.00;;;;;;5056637;28;9433;-65
2022/06/29 04:19:16;;;;;;;;;33.33;30.67;29.30;45.60;;;;;;5056396;28;8808;-66
2022/06/29 04:21:42;;;;;;;;;29.67;29.67;29.50;45.70;;;;;;5056288;28;8867;-67
2022/06/29 04:24:08;;;;;;;;;29.00;29.00;29.30;45.90;;;;;;5056261;28;8810;-65
2022/06/29 04:26:34;;;;;;;;;28.33;28.33;29.20;45.90;;;;;;5056365;28;8768;-67
2022/06/29 04:29:00;;;;;;;;;25.33;25.33;29.40;46.00;;;;;;5056258;28;8804;-66
2022/06/29 04:31:25;;;;;;;;;28.33;28.33;29.50;45.80;;;;;;5056390;28;8796;-67
2022/06/29 04:33:51;;;;;;;;;27.33;27.33;29.50;45.50;;;;;;5056021;28;9411;-67
2022/06/29 04:36:17;;;;;;;;;28.00;28.00;29.50;45.30;;;;;;5056090;28;8776;-68
2022/06/29 04:38:43;;;;;;;;;30.00;29.00;29.30;45.40;;;;;;5058293;28;8809;-67
2022/06/29 04:41:09;;;;;;;;;26.00;26.00;29.40;45.20;;;;;;5085959;28;8787;-68
2022/06/29 04:43:34;;;;;;;;;26.67;25.67;29.40;45.10;;;;;;5080246;28;8820;-67
2022/06/29 04:48:46;;;;;;;;;24.67;24.67;29.40;45.10;;;;;;5076010;28;8766;-67
2022/06/29 04:51:12;;;;;;;;;33.00;28.00;29.40;45.40;;;;;;5075875;28;8758;-67
2022/06/29 04:53:38;;;;;;;;;23.00;22.67;29.60;45.00;;;;;;5076035;28;9535;-67
2022/06/29 04:56:04;;;;;;;;;25.33;24.33;29.30;45.30;;;;;;5060679;28;8879;-66
2022/06/29 04:58:30;;;;;;;;;23.00;23.00;29.50;45.30;;;;;;5055750;28;9456;-66
2022/06/29 05:00:56;;;;;;;;;26.00;26.00;29.60;44.90;;;;;;5055469;28;8756;-66
2022/06/29 05:03:22;;;;;;;;;32.33;28.33;29.60;44.80;;;;;;5055854;28;8783;-66
2022/06/29 05:05:48;;;;;;;;;28.33;27.67;29.50;44.80;;;;;;5055383;28;8779;-66
2022/06/29 05:08:17;;;;;;;;;25.00;25.00;29.70;44.70;;;;;;5055335;28;8792;-66
2022/06/29 05:10:43;;;;;;;;;23.33;23.00;30.00;44.50;;;;;;5055669;28;9422;-66
2022/06/29 05:13:10;;;;;;;;;25.00;24.00;30.00;44.10;;;;;;5055349;28;8835;-66
2022/06/29 05:15:37;;;;;;;;;25.00;25.00;29.90;44.40;;;;;;5055261;28;8803;-66
2022/06/29 05:18:03;;;;;;;;;27.33;26.33;30.20;44.20;;;;;;5055383;28;8788;-66
2022/06/29 05:20:28;;;;;;;;;26.00;25.67;30.20;43.80;;;;;;5055102;28;8772;-66
2022/06/29 05:22:54;;;;;;;;;39.67;33.33;30.40;43.80;;;;;;5054460;28;8760;-65
2022/06/29 05:25:21;;;;;;;;;37.33;33.00;30.20;43.60;;;;;;5055526;28;8752;-66
2022/06/29 05:27:47;;;;;;;;;31.33;29.67;30.40;43.20;;;;;;5055077;28;8776;-66
2022/06/29 05:30:14;;;;;;;;;28.33;26.00;30.40;43.30;;;;;;5055344;28;8760;-65
2022/06/29 05:32:40;;;;;;;;;25.67;25.33;30.50;43.40;;;;;;5055248;28;8776;-66
2022/06/29 05:35:07;;;;;;;;;28.00;28.00;30.60;43.30;;;;;;5055084;28;8756;-65
2022/06/29 05:37:32;;;;;;;;;26.33;26.33;30.70;43.30;;;;;;5054805;28;8837;-66
2022/06/29 05:39:58;;;;;;;;;28.33;26.33;30.60;43.30;;;;;;5055179;28;8866;-67
2022/06/29 05:42:24;;;;;;;;;29.00;29.00;30.60;43.40;;;;;;5054801;28;8764;-65
2022/06/29 05:44:50;;;;;;;;;26.00;24.33;30.80;43.50;;;;;;5055001;28;8812;-66
2022/06/29 05:47:16;;;;;;;;;21.00;20.67;30.90;43.00;;;;;;5054690;28;8850;-66
2022/06/29 05:49:41;;;;;;;;;27.00;26.67;31.00;42.60;;;;;;5054910;28;8867;-66
2022/06/29 05:52:07;;;;;;;;;24.00;24.00;30.90;42.40;;;;;;5054800;28;8841;-66
2022/06/29 05:54:33;;;;;;;;;24.00;24.00;30.90;42.90;;;;;;5054929;28;8775;-65
2022/06/29 05:56:59;;;;;;;;;25.67;25.67;30.90;42.70;;;;;;5054660;28;8771;-66
2022/06/29 05:59:25;;;;;;;;;24.00;22.67;30.80;42.50;;;;;;5054577;28;8793;-66
2022/06/29 06:01:51;;;;;;;;;18.33;18.33;30.60;43.10;;;;;;5054586;28;8799;-66
2022/06/29 06:04:17;;;;;;;;;25.67;25.33;30.80;43.00;;;;;;5054766;28;8780;-66
2022/06/29 06:06:43;;;;;;;;;23.00;23.00;30.60;42.80;;;;;;5054462;28;8861;-66
2022/06/29 06:09:08;;;;;;;;;25.00;25.00;30.90;42.80;;;;;;5054590;28;8866;-66
2022/06/29 06:11:35;;;;;;;;;24.00;24.00;31.10;42.50;;;;;;5054327;28;8791;-67
2022/06/29 06:14:01;;;;;;;;;24.67;24.67;31.20;42.10;;;;;;5054099;28;8816;-66
2022/06/29 06:16:27;;;;;;;;;19.00;19.00;31.40;41.80;;;;;;5050904;28;11482;-66
2022/06/29 06:18:53;;;;;;;;;22.33;22.33;31.50;41.80;;;;;;5050970;28;8806;-66
2022/06/29 06:21:18;;;;;;;;;26.00;25.00;31.50;42.00;;;;;;5065179;28;8897;-66
2022/06/29 06:23:44;;;;;;;;;23.00;22.00;31.30;42.70;;;;;;5074254;28;8766;-66
2022/06/29 06:26:10;;;;;;;;;26.33;24.67;31.30;42.40;;;;;;5074238;28;8762;-67
2022/06/29 06:28:36;;;;;;;;;26.00;25.00;31.50;42.30;;;;;;5074424;28;8792;-66
2022/06/29 06:31:02;;;;;;;;;30.00;27.00;31.50;42.30;;;;;;5074220;28;8766;-66
2022/06/29 06:33:27;;;;;;;;;24.67;24.67;31.60;42.30;;;;;;5065227;28;8798;-65
2022/06/29 06:35:53;;;;;;;;;26.00;26.00;31.70;42.00;;;;;;5077899;28;8793;-66
2022/06/29 06:38:19;;;;;;;;;26.33;26.33;31.90;41.90;;;;;;5078334;28;8805;-66
2022/06/29 06:43:29;;;;;;;;;24.33;24.33;31.90;42.20;;;;;;5069999;28;8812;-66
2022/06/29 06:45:55;;;;;;;;;25.00;25.00;31.90;42.40;;;;;;5067706;28;8858;-65
2022/06/29 06:48:20;;;;;;;;;25.67;25.67;32.10;42.60;;;;;;5069863;28;8793;-64
2022/06/29 06:50:46;;;;;;;;;28.33;26.67;32.10;42.40;;;;;;5071301;28;9413;-64
2022/06/29 06:53:12;;;;;;;;;29.67;29.00;32.10;42.20;;;;;;5067184;28;8776;-63
2022/06/29 06:55:38;;;;;;;;;25.67;25.67;32.10;42.40;;;;;;5062367;28;8861;-63
2022/06/29 06:58:04;;;;;;;;;25.33;25.33;32.10;42.30;;;;;;5054637;28;8809;-63
2022/06/29 07:00:30;;;;;;;;;26.00;26.00;32.00;41.90;;;;;;5078118;28;8766;-64
2022/06/29 07:02:56;;;;;;;;;32.00;29.00;31.90;42.40;;;;;;5070163;28;12147;-65
2022/06/29 07:05:22;;;;;;;;;25.67;25.67;32.10;42.20;;;;;;5097243;28;8792;-65
2022/06/29 07:07:47;;;;;;;;;32.00;31.00;32.10;42.20;;;;;;5097653;28;9209;-65
2022/06/29 07:10:13;;;;;;;;;23.67;23.67;32.30;42.00;;;;;;5097729;28;8748;-64
2022/06/29 07:12:39;;;;;;;;;25.67;25.67;32.20;42.40;;;;;;5093402;28;8879;-70
2022/06/29 07:15:05;;;;;;;;;25.67;25.00;32.10;42.10;;;;;;5073980;28;8828;-74
2022/06/29 07:17:31;;;;;;;;;26.33;25.33;32.10;42.50;;;;;;5076336;28;8859;-73
2022/06/29 07:19:58;;;;;;;;;30.00;30.00;32.40;42.20;;;;;;5073752;28;8732;-73
2022/06/29 07:22:23;;;;;;;;;25.33;25.33;32.40;42.80;;;;;;5076234;28;8747;-74
2022/06/29 07:24:49;;;;;;;;;29.67;28.33;32.10;42.50;;;;;;5074277;28;8870;-72
2022/06/29 07:27:15;;;;;;;;;33.00;30.33;32.20;42.50;;;;;;5076332;28;8736;-68
2022/06/29 07:29:41;;;;;;;;;31.33;29.33;32.40;42.80;;;;;;5076200;28;8785;-67
2022/06/29 07:32:08;;;;;;;;;34.33;31.00;32.50;42.80;;;;;;5072965;28;8762;-69
2022/06/29 07:34:34;;;;;;;;;32.33;31.00;32.30;42.90;;;;;;5083197;28;9431;-68
2022/06/29 07:37:00;;;;;;;;;31.67;30.67;32.30;43.20;;;;;;5097358;28;8791;-70
2022/06/29 07:39:26;;;;;;;;;33.33;31.67;32.30;43.30;;;;;;5097524;28;8810;-71
2022/06/29 07:41:51;;;;;;;;;30.33;30.00;32.40;43.20;;;;;;5097576;28;8779;-68
2022/06/29 07:44:17;;;;;;;;;34.33;32.00;32.20;43.00;;;;;;5074965;28;8841;-71
2022/06/29 07:46:43;;;;;;;;;37.33;32.67;32.00;43.80;;;;;;5079715;28;8908;-70
2022/06/29 07:49:09;;;;;;;;;35.67;32.33;32.30;43.40;;;;;;5076065;28;8786;-69
2022/06/29 07:51:35;;;;;;;;;30.00;29.67;32.30;43.60;;;;;;5076172;28;8765;-69
2022/06/29 07:54:01;;;;;;;;;39.00;32.67;32.20;43.30;;;;;;5076712;28;8809;-69
2022/06/29 07:56:26;;;;;;;;;37.67;33.33;32.20;43.70;;;;;;5076782;28;8766;-69
2022/06/29 07:58:52;;;;;;;;;35.67;33.00;32.20;45.00;;;;;;5076690;28;8790;-68
2022/06/29 08:01:18;;;;;;;;;38.33;34.33;32.40;43.80;;;;;;5075634;28;9413;-68
2022/06/29 08:03:44;;;;;;;;;42.33;35.67;32.40;43.80;;;;;;5075533;28;8752;-67
2022/06/29 08:06:10;;;;;;;;;34.00;32.00;32.40;43.60;;;;;;5075472;28;8752;-69
2022/06/29 08:08:36;;;;;;;;;34.00;31.33;32.40;43.30;;;;;;5075190;28;8820;-69
2022/06/29 08:11:02;;;;;;;;;32.33;30.00;32.60;43.00;;;;;;5075322;28;8736;-68
2022/06/29 08:13:28;;;;;;;;;34.67;32.67;32.90;42.70;;;;;;5075070;28;8795;-67
2022/06/29 08:15:53;;;;;;;;;30.00;29.67;32.90;42.50;;;;;;5075119;28;8856;-69
2022/06/29 08:18:20;;;;;;;;;28.67;28.67;32.80;42.00;;;;;;5075324;28;8827;-68
2022/06/29 08:20:45;;;;;;;;;33.67;31.67;32.70;42.40;;;;;;5075121;28;8724;-67
2022/06/29 08:23:12;;;;;;;;;30.67;30.00;33.00;42.10;;;;;;5072168;28;9420;-67
2022/06/29 08:25:37;;;;;;;;;31.67;30.67;32.90;41.90;;;;;;5074434;28;8863;-68
2022/06/29 08:28:05;;;;;;;;;33.00;31.33;33.20;41.50;;;;;;5075053;28;8874;-67
2022/06/29 08:30:32;;;;;;;;;35.33;31.00;33.00;41.50;;;;;;5075642;28;8760;-66
2022/06/29 08:32:57;;;;;;;;;32.33;31.33;33.20;40.90;;;;;;5074551;28;8854;-66
2022/06/29 08:35:23;;;;;;;;;33.00;32.00;33.10;41.10;;;;;;5074745;28;8896;-66
2022/06/29 08:37:49;;;;;;;;;32.00;29.00;33.30;40.20;;;;;;5074860;28;9417;-66
2022/06/29 08:40:17;;;;;;;;;33.00;30.33;33.20;40.30;;;;;;5074682;28;8814;-66
2022/06/29 08:42:45;;;;;;;;;26.67;26.67;33.00;40.70;;;;;;5074646;28;8750;-66
2022/06/29 08:45:12;;;;;;;;;29.00;28.00;33.10;40.50;;;;;;5074964;28;8792;-67
2022/06/29 08:47:41;;;;;;;;;24.00;24.00;33.10;41.00;;;;;;5074158;28;8766;-66
2022/06/29 08:50:08;;;;;;;;;21.00;21.00;33.00;40.40;;;;;;5074435;28;9414;-67
2022/06/29 08:52:38;;;;;;;;;24.33;24.33;33.20;39.30;;;;;;5074561;28;11445;-68
2022/06/29 08:55:07;;;;;;;;;33.00;31.33;33.30;39.10;;;;;;5075188;28;11570;-69
2022/06/29 08:57:41;;;;;;;;;36.33;32.00;33.40;39.90;;;;;;5073762;28;8786;-67
2022/06/29 09:00:09;;;;;;;;;25.67;25.67;33.40;40.20;;;;;;5074784;28;9625;-67
2022/06/29 09:02:35;;;;;;;;;22.67;22.33;33.60;39.40;;;;;;5074389;28;11423;-68
2022/06/29 09:05:01;;;;;;;;;16.25;16.25;33.80;37.40;;;;;;5071257;28;11431;-66
2022/06/29 09:07:27;;;;;;;;;18.75;18.00;33.90;34.60;;;;;;5073938;28;11399;-66
2022/06/29 09:10:17;;;;;;;;;15.50;15.50;33.40;33.30;;;;;;5074452;28;8742;-69
2022/06/29 09:12:52;;;;;;;;;19.00;19.00;33.50;33.90;;;;;;5071760;28;9418;-69
2022/06/29 09:15:29;;;;;;;;;19.00;17.75;34.00;35.20;;;;;;5073613;28;11471;-66
2022/06/29 09:17:55;;;;;;;;;17.25;17.25;34.00;33.20;;;;;;5074071;28;12075;-69
2022/06/29 09:20:21;;;;;;;;;15.25;15.25;34.10;31.50;;;;;;5074055;28;11364;-68
2022/06/29 09:22:57;;;;;;;;;16.00;16.00;34.10;31.90;;;;;;5074110;28;9510;-69
2022/06/29 09:25:27;;;;;;;;;18.75;18.75;34.00;32.00;;;;;;5071915;28;8771;-66
2022/06/29 09:27:56;;;;;;;;;14.50;14.50;34.20;32.00;;;;;;5073984;28;12026;-67
2022/06/29 09:30:28;;;;;;;;;12.25;12.25;34.40;31.90;;;;;;5073864;28;11537;-65
2022/06/29 09:33:06;;;;;;;;;14.25;14.25;34.50;32.00;;;;;;5073724;28;11433;-65
2022/06/29 09:35:36;;;;;;;;;22.00;21.00;34.90;31.30;;;;;;5071904;28;11423;-65
2022/06/29 09:38:25;;;;;;;;;15.75;15.75;35.20;31.20;;;;;;5073479;28;11481;-65
2022/06/29 09:41:06;;;;;;;;;14.00;14.00;35.20;29.80;;;;;;5071747;28;11360;-68
2022/06/29 09:43:34;;;;;;;;;16.67;16.67;35.00;29.50;;;;;;5071618;28;11524;-66
2022/06/29 09:46:01;;;;;;;;;15.00;15.00;35.00;29.90;;;;;;5073423;28;11408;-66
2022/06/29 09:48:28;;;;;;;;;15.75;14.50;34.80;29.90;;;;;;5071009;28;11624;-66
2022/06/29 09:50:55;;;;;;;;;13.00;13.00;34.80;29.60;;;;;;5073332;28;11403;-65
2022/06/29 09:53:37;;;;;;;;;13.00;13.00;34.60;29.40;;;;;;5073575;28;12060;-67
2022/06/29 09:56:06;;;;;;;;;15.75;15.75;34.90;30.60;;;;;;5072717;28;11393;-65
2022/06/29 09:58:45;;;;;;;;;14.00;13.75;35.00;29.20;;;;;;5073136;28;12101;-66
2022/06/29 10:03:57;;;;;;;;;11.25;11.25;35.00;28.60;;;;;;5069329;28;11978;-64
2022/06/29 10:06:24;;;;;;;;;11.00;11.00;34.80;27.90;;;;;;5071454;28;12089;-66
2022/06/29 10:08:52;;;;;;;;;12.00;12.00;34.70;28.30;;;;;;5070049;28;11994;-66
2022/06/29 10:14:30;;;;;;;;;15.00;11.00;35.10;26.90;;;;;;5070483;28;11460;-65
2022/06/29 10:17:27;;;;;;;;;11.50;10.00;35.20;27.80;;;;;;5072901;28;11548;-65
2022/06/29 10:20:18;;;;;;;;;10.00;10.00;35.50;26.50;;;;;;5054814;28;11430;-67
2022/06/29 10:22:44;;;;;;;;;10.25;10.25;35.80;27.00;;;;;;5072617;28;11457;-67
2022/06/29 10:25:12;;;;;;;;;9.25;9.25;35.80;26.90;;;;;;5071248;28;11454;-67
2022/06/29 10:27:58;;;;;;;;;9.50;9.50;35.80;27.50;;;;;;5071315;28;9532;-66
2022/06/29 10:30:28;;;;;;;;;11.25;11.25;35.70;27.50;;;;;;5066950;28;11448;-66
2022/06/29 10:33:28;;;;;;;;;8.50;8.50;35.70;27.50;;;;;;5067926;28;11450;-65
2022/06/29 10:36:05;;;;;;;;;12.00;12.00;36.00;27.50;;;;;;5071645;28;11518;-66
2022/06/29 10:38:35;;;;;;;;;9.50;9.50;36.10;27.80;;;;;;5069818;28;11522;-66
2022/06/29 10:43:55;;;;;;;;;15.00;15.00;35.90;27.50;;;;;;5074063;28;11422;-66
2022/06/29 10:46:22;;;;;;;;;12.00;12.00;36.00;27.90;;;;;;5070061;28;11416;-65
2022/06/29 10:49:20;;;;;;;;;10.00;10.00;36.10;27.30;;;;;;5070982;28;9430;-68
2022/06/29 10:51:49;;;;;;;;;11.25;11.25;36.50;26.60;;;;;;5071091;28;11411;-67
2022/06/29 10:54:25;;;;;;;;;11.00;11.00;36.50;26.80;;;;;;5069007;28;11423;-69
2022/06/29 10:56:52;;;;;;;;;9.00;9.00;36.70;26.70;;;;;;5069643;28;12100;-67
2022/06/29 10:59:34;;;;;;;;;10.50;10.50;36.70;26.20;;;;;;5070334;28;11398;-66
2022/06/29 11:02:14;;;;;;;;;10.25;10.25;36.80;26.70;;;;;;5070950;28;11409;-69
2022/06/29 11:04:41;;;;;;;;;11.00;11.00;36.80;27.30;;;;;;5071584;28;11397;-69
2022/06/29 11:12:55;;;;;;;;;12.50;12.50;37.10;28.30;;;;;;5071479;28;11488;-68
2022/06/29 11:15:47;;;;;;;;;11.75;11.75;36.80;28.70;;;;;;5071439;28;11471;-68
2022/06/29 11:18:15;;;;;;;;;13.50;13.50;37.20;28.40;;;;;;5056042;28;11492;-67
2022/06/29 11:20:44;;;;;;;;;14.25;14.25;37.00;28.70;;;;;;5075292;28;11428;-67
2022/06/29 11:23:14;;;;;;;;;13.50;13.50;37.00;29.20;;;;;;5077386;28;12077;-66
2022/06/29 11:25:44;;;;;;;;;12.00;12.00;37.20;28.90;;;;;;5077248;28;11490;-66
2022/06/29 11:28:11;;;;;;;;;14.00;14.00;37.10;28.00;;;;;;5077362;28;11457;-68
2022/06/29 11:30:37;;;;;;;;;12.00;12.00;37.40;27.50;;;;;;5077294;28;11434;-68
2022/06/29 11:33:11;;;;;;;;;11.25;11.25;37.90;27.00;;;;;;5077239;28;11552;-70
2022/06/29 11:35:42;;;;;;;;;12.25;12.25;38.20;26.80;;;;;;5077231;28;11450;-68
2022/06/29 11:38:09;;;;;;;;;8.50;8.50;38.40;27.20;;;;;;5065731;28;11553;-69
2022/06/29 11:40:42;;;;;;;;;15.50;15.50;38.40;26.80;;;;;;5077441;28;12037;-70
2022/06/29 11:43:09;;;;;;;;;16.25;16.25;38.40;26.90;;;;;;5084711;28;11455;-70
2022/06/29 11:45:36;;;;;;;;;14.50;14.50;38.20;27.80;;;;;;5097265;28;11411;-69
2022/06/29 11:48:17;;;;;;;;;15.25;15.25;37.80;28.00;;;;;;5097278;28;11509;-66
2022/06/29 11:50:45;;;;;;;;;15.25;15.25;37.60;27.60;;;;;;5081116;28;11469;-67
2022/06/29 11:53:11;;;;;;;;;14.50;14.50;37.60;28.10;;;;;;5072280;28;12127;-66
2022/06/29 11:55:44;;;;;;;;;14.75;14.75;37.60;27.90;;;;;;5069640;28;12233;-66
2022/06/29 11:58:16;;;;;;;;;13.75;13.75;37.40;28.10;;;;;;5058759;28;11505;-69
2022/06/29 12:00:43;;;;;;;;;12.00;12.00;37.60;28.10;;;;;;5059331;28;11452;-67
2022/06/29 12:03:13;;;;;;;;;14.25;14.25;37.40;28.10;;;;;;5069388;28;11467;-67
2022/06/29 12:05:56;;;;;;;;;13.50;13.50;37.70;28.00;;;;;;5073085;28;11418;-68
2022/06/29 12:08:21;;;;;;;;;14.25;14.25;37.90;27.90;;;;;;5073802;28;11459;-68
2022/06/29 12:10:47;;;;;;;;;14.50;14.50;38.30;28.40;;;;;;5071089;28;11395;-71
2022/06/29 12:13:13;;;;;;;;;12.25;12.25;38.20;27.30;;;;;;5072026;28;8794;-72
2022/06/29 12:15:39;;;;;;;;;12.00;12.00;38.20;27.50;;;;;;5072803;28;8771;-69
2022/06/29 12:18:05;;;;;;;;;11.75;11.75;38.00;27.70;;;;;;5077467;28;11478;-70
2022/06/29 12:20:32;;;;;;;;;13.00;13.00;38.20;27.90;;;;;;5069958;28;8752;-71
2022/06/29 12:22:58;;;;;;;;;14.00;14.00;38.40;27.80;;;;;;5070059;28;8770;-69
2022/06/29 12:25:24;;;;;;;;;11.00;11.00;38.40;27.40;;;;;;5075041;28;11383;-70
2022/06/29 12:27:50;;;;;;;;;12.00;12.00;38.60;26.90;;;;;;5073874;28;8778;-69
2022/06/29 12:30:17;;;;;;;;;10.25;10.25;38.80;27.10;;;;;;5061249;28;11536;-75
2022/06/29 12:32:43;;;;;;;;;14.50;14.50;38.80;27.30;;;;;;5071517;28;11378;-69
2022/06/29 12:35:09;;;;;;;;;13.50;13.50;38.80;27.50;;;;;;5074566;28;11383;-71
2022/06/29 12:37:36;;;;;;;;;14.00;14.00;38.90;27.10;;;;;;5066232;28;11399;-74
2022/06/29 12:40:02;;;;;;;;;15.25;15.25;38.60;26.70;;;;;;5051728;28;11393;-71
2022/06/29 12:42:27;;;;;;;;;12.50;12.50;38.50;27.00;;;;;;5072380;28;11405;-66
2022/06/29 12:44:53;;;;;;;;;13.25;13.25;38.40;27.30;;;;;;5073315;28;8942;-65
2022/06/29 12:47:19;;;;;;;;;13.75;13.75;38.40;26.80;;;;;;5074261;28;8768;-68
2022/06/29 12:49:44;;;;;;;;;11.25;11.25;38.40;27.20;;;;;;5063644;28;8803;-66
2022/06/29 12:52:10;;;;;;;;;14.25;14.25;38.60;27.60;;;;;;5070267;28;8833;-69
2022/06/29 12:54:36;;;;;;;;;14.00;14.00;38.40;27.40;;;;;;5074570;28;8789;-67
2022/06/29 12:57:02;;;;;;;;;11.50;11.50;38.40;27.30;;;;;;5066425;28;9584;-67
2022/06/29 12:59:28;;;;;;;;;12.00;12.00;38.30;27.20;;;;;;5066946;28;8788;-70
2022/06/29 13:01:54;;;;;;;;;9.75;9.75;38.20;27.10;;;;;;5079053;28;8891;-70
2022/06/29 13:04:20;;;;;;;;;11.25;11.25;38.20;27.50;;;;;;5096083;28;8772;-71